Informes de METARS cercanos

 

LEAL - Alicante/El Alte, Spain
Distance from station: SSE 60km
Actualización: 12/08/2022 22:00
Despejado
Despejado
 Viento del SSO
Viento: SSO 7 km/h
Temperatura: 29°C
Heat Index: 32°C
Rocío: 22°C
Humedad: 66%
Barómetro: 1011 hPa
Resumen: Despejado
Visibility: greater than 10 km
2022/08/12 20:00 LEAL 122000Z 20004KT 150V260 CAVOK 29/22 Q1011 NOSIG
LEVC - Valencia (civ/Mi, Spain
Distance from station: NNE 84km
Actualización: 12/08/2022 22:00
Poco nuboso
Poco nuboso
 Viento del varies
Viento: varies 4 km/h
Temperatura: 31°C
Heat Index: 34°C
Rocío: 21°C
Humedad: 55%
Barómetro: 1011 hPa
Clouds: Poco nuboso
Visibility: 10 km
Cloud details: Poco nuboso 914 m
Poco nuboso 1219 m
2022/08/12 20:00 LEVC 122000Z VRB02KT 9999 FEW030 FEW040CB 31/21 Q1011 RETS NOSIG
 
LEAB - Albacete (civ/Mi, Spain
Distance from station: O 95km
Actualización: 12/08/2022 22:00
Despejado
Despejado
 Viento del SSE
Viento: SSE 13 km/h
Temperatura: 24°C
Rocío: 16°C
Humedad: 61%
Barómetro: 1017 hPa
Resumen: Despejado
Visibility: greater than 10 km
2022/08/12 20:00 LEAB 122000Z 15007KT CAVOK 24/16 Q1017 NOSIG
LERI - Alcantarilla(Sp-, Spain
Distance from station: SSO 100km
Actualización: 12/08/2022 20:00
NOT Current
Poco nuboso
Poco nuboso
 Viento del NE
Viento: NE 15 km/h
Temperatura: 31°C
Heat Index: 33°C
Rocío: 20°C
Humedad: 52%
Barómetro: 1011 hPa
Clouds: Poco nuboso
Visibility: 10 km
Cloud details: Poco nuboso 1372 m
2022/08/12 18:00 LERI 121800Z 05008KT 9999 FEW045CB 31/20 Q1011 NOSIG
 
LELC - San Javier(Mil/C, Spain
Distance from station: S 113km
Actualización: 12/08/2022 22:00
Despejado
Despejado
 Viento del NNE
Viento: NNE 9 km/h
Temperatura: 27°C
Heat Index: 31°C
Rocío: 25°C
Humedad: 89%
Barómetro: 1012 hPa
Resumen: Despejado
Visibility: greater than 10 km
2022/08/12 20:00 LELC 122000Z 02005KT 350V050 CAVOK 27/25 Q1012 NOSIG
LEIB - Ibiza/Es Codola, Spain
Distance from station: E 186km
Actualización: 12/08/2022 22:00
Despejado
Despejado
 Viento del SO
Viento: SO 11 km/h
Temperatura: 28°C
Heat Index: 32°C
Rocío: 24°C
Humedad: 79%
Barómetro: 1012 hPa
Resumen: Despejado
Visibility: greater than 10 km
2022/08/12 20:00 LEIB 122000Z 22006KT CAVOK 28/24 Q1012 NOSIG
 
LEAM - Almeria Airport, Spain
Distance from station: SSO 256km
Actualización: 12/08/2022 22:00
Despejado
Despejado
 Viento del OSO
Viento: OSO 19 km/h
Temperatura: 28°C
Heat Index: 32°C
Rocío: 25°C
Humedad: 84%
Barómetro: 1013 hPa
Resumen: Despejado
Visibility: greater than 10 km
2022/08/12 20:00 LEAM 122000Z 24010KT 200V260 CAVOK 28/25 Q1013
LEMD - Madrid/Barajas, Spain
Distance from station: NO 305km
Actualización: 12/08/2022 22:00
Parcialmente nuboso
Parcialmente nuboso
 Viento del O
Viento: O 7 km/h
Temperatura: 35°C
Rocío: 9°C
Humedad: 20%
Barómetro: 1014 hPa
Clouds: Parcialmente nuboso
Visibility: 7 km
2022/08/12 20:00 LEMD 122000Z 26004KT 220V290 7000 NSC 35/09 Q1014 NOSIG
 
LEPA - Palma De Mallorc, Spain
Distance from station: ENE 313km
Actualización: 12/08/2022 22:00
Despejado
Despejado
 Viento del SO
Viento: SO 6 km/h
Temperatura: 29°C
Heat Index: 33°C
Rocío: 24°C
Humedad: 74%
Barómetro: 1013 hPa
Resumen: Despejado
Visibility: greater than 10 km
2022/08/12 20:00 LEPA 122000Z 22003KT 190V250 CAVOK 29/24 Q1013 NOSIG